sensor_id;sensor_type;location;lat;lon;timestamp;pressure;altitude;pressure_sealevel;temperature;humidity
19789;BME280;10054;59.332;18.244;2023-04-25T00:00:36;99678.69;;;3.41;100.00
19789;BME280;10054;59.332;18.244;2023-04-25T00:03:05;99666.03;;;3.42;100.00
19789;BME280;10054;59.332;18.244;2023-04-25T00:05:34;99655.68;;;3.41;100.00
19789;BME280;10054;59.332;18.244;2023-04-25T00:08:04;99651.92;;;3.38;100.00
19789;BME280;10054;59.332;18.244;2023-04-25T00:10:33;99654.06;;;3.38;100.00
19789;BME280;10054;59.332;18.244;2023-04-25T00:13:02;99648.01;;;3.38;100.00
19789;BME280;10054;59.332;18.244;2023-04-25T00:15:31;99642.48;;;3.35;100.00
19789;BME280;10054;59.332;18.244;2023-04-25T00:18:01;99641.64;;;3.35;100.00
19789;BME280;10054;59.332;18.244;2023-04-25T00:20:30;99631.51;;;3.28;100.00
19789;BME280;10054;59.332;18.244;2023-04-25T00:22:59;99635.80;;;3.29;100.00
19789;BME280;10054;59.332;18.244;2023-04-25T00:25:28;99634.19;;;3.27;100.00
19789;BME280;10054;59.332;18.244;2023-04-25T00:27:57;99632.81;;;3.28;100.00
19789;BME280;10054;59.332;18.244;2023-04-25T00:30:26;99623.23;;;3.29;100.00
19789;BME280;10054;59.332;18.244;2023-04-25T00:32:55;99621.92;;;3.29;100.00
19789;BME280;10054;59.332;18.244;2023-04-25T00:35:24;99627.98;;;3.29;100.00
19789;BME280;10054;59.332;18.244;2023-04-25T00:37:54;99628.44;;;3.29;100.00
19789;BME280;10054;59.332;18.244;2023-04-25T00:40:24;99610.27;;;3.27;100.00
19789;BME280;10054;59.332;18.244;2023-04-25T00:42:53;99597.70;;;3.27;100.00
19789;BME280;10054;59.332;18.244;2023-04-25T00:45:22;99583.44;;;3.25;100.00
19789;BME280;10054;59.332;18.244;2023-04-25T00:47:53;99596.93;;;3.25;100.00
19789;BME280;10054;59.332;18.244;2023-04-25T00:50:23;99618.63;;;3.25;100.00
19789;BME280;10054;59.332;18.244;2023-04-25T00:52:53;99626.44;;;3.25;100.00
19789;BME280;10054;59.332;18.244;2023-04-25T00:55:22;99623.06;;;3.23;100.00
19789;BME280;10054;59.332;18.244;2023-04-25T00:57:52;99617.09;;;3.21;100.00
19789;BME280;10054;59.332;18.244;2023-04-25T01:00:21;99604.44;;;3.22;100.00
19789;BME280;10054;59.332;18.244;2023-04-25T01:02:51;99611.48;;;3.20;100.00
19789;BME280;10054;59.332;18.244;2023-04-25T01:05:21;99617.09;;;3.21;100.00
19789;BME280;10054;59.332;18.244;2023-04-25T01:07:50;99614.86;;;3.22;100.00
19789;BME280;10054;59.332;18.244;2023-04-25T01:10:19;99601.38;;;3.23;100.00
19789;BME280;10054;59.332;18.244;2023-04-25T01:12:48;99617.39;;;3.24;100.00
19789;BME280;10054;59.332;18.244;2023-04-25T01:15:17;99617.39;;;3.24;100.00
19789;BME280;10054;59.332;18.244;2023-04-25T01:17:46;99601.38;;;3.23;100.00
19789;BME280;10054;59.332;18.244;2023-04-25T01:20:17;99589.72;;;3.21;100.00
19789;BME280;10054;59.332;18.244;2023-04-25T01:22:46;99563.04;;;3.16;100.00
19789;BME280;10054;59.332;18.244;2023-04-25T01:25:16;99564.88;;;3.14;100.00
19789;BME280;10054;59.332;18.244;2023-04-25T01:27:46;99569.24;;;3.14;100.00
19789;BME280;10054;59.332;18.244;2023-04-25T01:30:16;99578.83;;;3.13;100.00
19789;BME280;10054;59.332;18.244;2023-04-25T01:32:45;99577.98;;;3.13;100.00
19789;BME280;10054;59.332;18.244;2023-04-25T01:35:15;99557.13;;;3.13;100.00
19789;BME280;10054;59.332;18.244;2023-04-25T01:37:44;99544.56;;;3.12;100.00
19789;BME280;10054;59.332;18.244;2023-04-25T01:40:14;99550.16;;;3.13;100.00
19789;BME280;10054;59.332;18.244;2023-04-25T01:42:44;99551.54;;;3.12;100.00
19789;BME280;10054;59.332;18.244;2023-04-25T01:45:14;99551.08;;;3.12;100.00
19789;BME280;10054;59.332;18.244;2023-04-25T01:47:43;99551.16;;;3.11;100.00
19789;BME280;10054;59.332;18.244;2023-04-25T01:50:14;99554.67;;;3.10;100.00
19789;BME280;10054;59.332;18.244;2023-04-25T01:52:43;99558.52;;;3.11;100.00
19789;BME280;10054;59.332;18.244;2023-04-25T01:55:13;99558.05;;;3.12;100.00
19789;BME280;10054;59.332;18.244;2023-04-25T01:57:43;99568.41;;;3.13;100.00
19789;BME280;10054;59.332;18.244;2023-04-25T02:00:13;99573.23;;;3.12;100.00
19789;BME280;10054;59.332;18.244;2023-04-25T02:02:41;99574.91;;;3.13;100.00
19789;BME280;10054;59.332;18.244;2023-04-25T02:05:24;99575.69;;;3.15;100.00
19789;BME280;10054;59.332;18.244;2023-04-25T02:07:53;99574.23;;;3.18;100.00
19789;BME280;10054;59.332;18.244;2023-04-25T02:10:24;99565.95;;;3.19;100.00
19789;BME280;10054;59.332;18.244;2023-04-25T02:12:57;99555.45;;;3.20;100.00
19789;BME280;10054;59.332;18.244;2023-04-25T02:15:28;99558.45;;;3.21;100.00
19789;BME280;10054;59.332;18.244;2023-04-25T02:17:59;99548.02;;;3.21;100.00
19789;BME280;10054;59.332;18.244;2023-04-25T02:20:31;99544.57;;;3.21;100.00
19789;BME280;10054;59.332;18.244;2023-04-25T02:23:00;99548.17;;;3.18;100.00
19789;BME280;10054;59.332;18.244;2023-04-25T02:25:30;99527.86;;;3.16;100.00
19789;BME280;10054;59.332;18.244;2023-04-25T02:27:59;99519.13;;;3.17;100.00
19789;BME280;10054;59.332;18.244;2023-04-25T02:30:30;99517.05;;;3.15;100.00
19789;BME280;10054;59.332;18.244;2023-04-25T02:32:59;99509.00;;;3.11;100.00
19789;BME280;10054;59.332;18.244;2023-04-25T02:35:29;99504.17;;;3.12;100.00
19789;BME280;10054;59.332;18.244;2023-04-25T02:37:58;99503.02;;;3.09;100.00
19789;BME280;10054;59.332;18.244;2023-04-25T02:40:28;99506.09;;;3.09;100.00
19789;BME280;10054;59.332;18.244;2023-04-25T02:42:57;99484.48;;;3.07;100.00
19789;BME280;10054;59.332;18.244;2023-04-25T02:45:27;99487.55;;;3.06;100.00
19789;BME280;10054;59.332;18.244;2023-04-25T02:47:56;99477.27;;;3.03;100.00
19789;BME280;10054;59.332;18.244;2023-04-25T02:50:25;99469.84;;;3.04;100.00
19789;BME280;10054;59.332;18.244;2023-04-25T02:52:54;99474.98;;;3.06;100.00
19789;BME280;10054;59.332;18.244;2023-04-25T02:55:25;99480.27;;;3.04;100.00
19789;BME280;10054;59.332;18.244;2023-04-25T02:57:54;99481.57;;;3.04;100.00
19789;BME280;10054;59.332;18.244;2023-04-25T03:00:28;99481.11;;;3.05;100.00
19789;BME280;10054;59.332;18.244;2023-04-25T03:02:57;99474.21;;;3.04;100.00
19789;BME280;10054;59.332;18.244;2023-04-25T03:05:26;99475.20;;;3.01;100.00
19789;BME280;10054;59.332;18.244;2023-04-25T03:07:55;99460.95;;;3.00;100.00
19789;BME280;10054;59.332;18.244;2023-04-25T03:10:24;99449.31;;;2.98;100.00
19789;BME280;10054;59.332;18.244;2023-04-25T03:12:54;99448.00;;;2.98;100.00
19789;BME280;10054;59.332;18.244;2023-04-25T03:15:22;99444.67;;;2.96;100.00
19789;BME280;10054;59.332;18.244;2023-04-25T03:17:53;99449.42;;;2.96;100.00
19789;BME280;10054;59.332;18.244;2023-04-25T03:20:23;99443.36;;;2.96;100.00
19789;BME280;10054;59.332;18.244;2023-04-25T03:22:52;99427.35;;;2.95;100.00
19789;BME280;10054;59.332;18.244;2023-04-25T03:25:21;99420.53;;;2.92;100.00
19789;BME280;10054;59.332;18.244;2023-04-25T03:27:50;99421.00;;;2.92;100.00
19789;BME280;10054;59.332;18.244;2023-04-25T03:30:19;99417.01;;;2.93;100.00
19789;BME280;10054;59.332;18.244;2023-04-25T03:32:49;99417.85;;;2.94;100.00
19789;BME280;10054;59.332;18.244;2023-04-25T03:35:18;99409.58;;;2.94;100.00
19789;BME280;10054;59.332;18.244;2023-04-25T03:37:47;99421.22;;;2.96;100.00
19789;BME280;10054;59.332;18.244;2023-04-25T03:40:19;99421.11;;;2.97;100.00
19789;BME280;10054;59.332;18.244;2023-04-25T03:42:52;99425.02;;;2.97;100.00
19789;BME280;10054;59.332;18.244;2023-04-25T03:45:21;99416.20;;;3.00;100.00
19789;BME280;10054;59.332;18.244;2023-04-25T03:47:50;99393.22;;;3.00;100.00
19789;BME280;10054;59.332;18.244;2023-04-25T03:50:19;99399.73;;;3.00;100.00
19789;BME280;10054;59.332;18.244;2023-04-25T03:52:48;99410.92;;;3.02;100.00
19789;BME280;10054;59.332;18.244;2023-04-25T03:55:18;99395.20;;;3.03;100.00
19789;BME280;10054;59.332;18.244;2023-04-25T03:57:47;99401.64;;;3.05;100.00
19789;BME280;10054;59.332;18.244;2023-04-25T04:00:17;99385.09;;;3.06;100.00
19789;BME280;10054;59.332;18.244;2023-04-25T04:02:45;99389.30;;;3.08;100.00
19789;BME280;10054;59.332;18.244;2023-04-25T04:05:14;99380.87;;;3.12;100.00
19789;BME280;10054;59.332;18.244;2023-04-25T04:07:44;99364.77;;;3.12;100.00
19789;BME280;10054;59.332;18.244;2023-04-25T04:10:14;99358.64;;;3.13;100.00
19789;BME280;10054;59.332;18.244;2023-04-25T04:12:42;99360.78;;;3.14;100.00
19789;BME280;10054;59.332;18.244;2023-04-25T04:15:12;99359.02;;;3.14;100.00
19789;BME280;10054;59.332;18.244;2023-04-25T04:17:40;99364.77;;;3.12;100.00
19789;BME280;10054;59.332;18.244;2023-04-25T04:20:10;99367.60;;;3.16;100.00
19789;BME280;10054;59.332;18.244;2023-04-25T04:22:40;99367.98;;;3.17;100.00
19789;BME280;10054;59.332;18.244;2023-04-25T04:25:11;99365.38;;;3.17;100.00
19789;BME280;10054;59.332;18.244;2023-04-25T04:27:44;99361.31;;;3.20;100.00
19789;BME280;10054;59.332;18.244;2023-04-25T04:30:24;99361.61;;;3.23;100.00
19789;BME280;10054;59.332;18.244;2023-04-25T04:32:57;99371.57;;;3.23;100.00
19789;BME280;10054;59.332;18.244;2023-04-25T04:35:26;99371.49;;;3.25;100.00
19789;BME280;10054;59.332;18.244;2023-04-25T04:37:55;99387.81;;;3.28;100.00
19789;BME280;10054;59.332;18.244;2023-04-25T04:40:25;99384.28;;;3.29;100.00
19789;BME280;10054;59.332;18.244;2023-04-25T04:42:58;99389.41;;;3.31;100.00
19789;BME280;10054;59.332;18.244;2023-04-25T04:45:41;99383.82;;;3.30;100.00
19789;BME280;10054;59.332;18.244;2023-04-25T04:48:26;99384.58;;;3.32;100.00
19789;BME280;10054;59.332;18.244;2023-04-25T04:51:00;99386.65;;;3.34;100.00
19789;BME280;10054;59.332;18.244;2023-04-25T04:53:33;99387.79;;;3.37;100.00
19789;BME280;10054;59.332;18.244;2023-04-25T04:56:20;99393.69;;;3.41;100.00
19789;BME280;10054;59.332;18.244;2023-04-25T04:58:52;99392.98;;;3.46;100.00
19789;BME280;10054;59.332;18.244;2023-04-25T05:01:39;99391.59;;;3.47;100.00
19789;BME280;10054;59.332;18.244;2023-04-25T05:04:12;99383.70;;;3.49;100.00
19789;BME280;10054;59.332;18.244;2023-04-25T05:06:45;99380.55;;;3.51;100.00
19789;BME280;10054;59.332;18.244;2023-04-25T05:09:34;99367.34;;;3.54;100.00
19789;BME280;10054;59.332;18.244;2023-04-25T05:12:20;99369.78;;;3.57;100.00
19789;BME280;10054;59.332;18.244;2023-04-25T05:14:56;99364.19;;;3.56;100.00
19789;BME280;10054;59.332;18.244;2023-04-25T05:17:27;99365.88;;;3.57;100.00
19789;BME280;10054;59.332;18.244;2023-04-25T05:20:15;99368.40;;;3.58;100.00
19789;BME280;10054;59.332;18.244;2023-04-25T05:23:06;99359.57;;;3.61;100.00
19789;BME280;10054;59.332;18.244;2023-04-25T05:25:39;99361.47;;;3.66;100.00
19789;BME280;10054;59.332;18.244;2023-04-25T05:28:10;99363.15;;;3.67;100.00
19789;BME280;10054;59.332;18.244;2023-04-25T05:30:41;99365.30;;;3.68;100.00
19789;BME280;10054;59.332;18.244;2023-04-25T05:33:12;99370.22;;;3.65;100.00
19789;BME280;10054;59.332;18.244;2023-04-25T05:35:42;99369.59;;;3.69;100.00
19789;BME280;10054;59.332;18.244;2023-04-25T05:38:11;99355.63;;;3.70;100.00
19789;BME280;10054;59.332;18.244;2023-04-25T05:40:58;99357.39;;;3.69;100.00
19789;BME280;10054;59.332;18.244;2023-04-25T05:43:46;99351.63;;;3.71;100.00
19789;BME280;10054;59.332;18.244;2023-04-25T05:46:18;99341.08;;;3.73;100.00
19789;BME280;10054;59.332;18.244;2023-04-25T05:48:51;99345.66;;;3.76;100.00
19789;BME280;10054;59.332;18.244;2023-04-25T05:51:21;99340.36;;;3.78;100.00
19789;BME280;10054;59.332;18.244;2023-04-25T05:53:52;99339.35;;;3.80;100.00
19789;BME280;10054;59.332;18.244;2023-04-25T05:56:22;99336.95;;;3.84;100.00
19789;BME280;10054;59.332;18.244;2023-04-25T05:58:52;99335.65;;;3.84;100.00
19789;BME280;10054;59.332;18.244;2023-04-25T06:01:22;99333.05;;;3.84;100.00
19789;BME280;10054;59.332;18.244;2023-04-25T06:03:51;99341.71;;;3.85;100.00
19789;BME280;10054;59.332;18.244;2023-04-25T06:06:20;99350.75;;;3.86;100.00
19789;BME280;10054;59.332;18.244;2023-04-25T06:08:48;99338.17;;;3.86;100.00
19789;BME280;10054;59.332;18.244;2023-04-25T06:11:17;99345.53;;;3.86;100.00
19789;BME280;10054;59.332;18.244;2023-04-25T06:13:46;99349.45;;;3.86;100.00
19789;BME280;10054;59.332;18.244;2023-04-25T06:16:16;99346.76;;;3.88;100.00
19789;BME280;10054;59.332;18.244;2023-04-25T06:18:45;99355.97;;;3.86;100.00
19789;BME280;10054;59.332;18.244;2023-04-25T06:21:14;99352.98;;;3.85;100.00
19789;BME280;10054;59.332;18.244;2023-04-25T06:23:43;99348.91;;;3.88;100.00
19789;BME280;10054;59.332;18.244;2023-04-25T06:26:13;99340.70;;;3.87;100.00
19789;BME280;10054;59.332;18.244;2023-04-25T06:28:42;99346.30;;;3.88;100.00
19789;BME280;10054;59.332;18.244;2023-04-25T06:31:11;99350.12;;;3.90;100.00
19789;BME280;10054;59.332;18.244;2023-04-25T06:33:41;99353.86;;;3.93;100.00
19789;BME280;10054;59.332;18.244;2023-04-25T06:36:10;99352.94;;;3.94;100.00
19789;BME280;10054;59.332;18.244;2023-04-25T06:38:39;99352.30;;;3.98;100.00
19789;BME280;10054;59.332;18.244;2023-04-25T06:41:08;99350.45;;;4.00;100.00
19789;BME280;10054;59.332;18.244;2023-04-25T06:43:37;99349.81;;;4.03;100.00
19789;BME280;10054;59.332;18.244;2023-04-25T06:46:13;99350.86;;;4.08;100.00
19789;BME280;10054;59.332;18.244;2023-04-25T06:48:44;99347.16;;;4.12;100.00
19789;BME280;10054;59.332;18.244;2023-04-25T06:51:13;99347.83;;;4.15;100.00
19789;BME280;10054;59.332;18.244;2023-04-25T06:53:42;99344.58;;;4.19;100.00
19789;BME280;10054;59.332;18.244;2023-04-25T06:56:13;99345.16;;;4.24;100.00
19789;BME280;10054;59.332;18.244;2023-04-25T06:58:43;99335.47;;;4.26;100.00
19789;BME280;10054;59.332;18.244;2023-04-25T07:01:16;99327.84;;;4.30;100.00
19789;BME280;10054;59.332;18.244;2023-04-25T07:03:45;99338.58;;;4.33;100.00
19789;BME280;10054;59.332;18.244;2023-04-25T07:06:15;99337.56;;;4.35;100.00
19789;BME280;10054;59.332;18.244;2023-04-25T07:08:45;99337.84;;;4.38;100.00
19789;BME280;10054;59.332;18.244;2023-04-25T07:11:14;99335.14;;;4.39;100.00
19789;BME280;10054;59.332;18.244;2023-04-25T07:13:43;99347.09;;;4.43;100.00
19789;BME280;10054;59.332;18.244;2023-04-25T07:16:30;99358.76;;;4.45;100.00
19789;BME280;10054;59.332;18.244;2023-04-25T07:19:00;99359.22;;;4.51;100.00
19789;BME280;10054;59.332;18.244;2023-04-25T07:21:28;99360.25;;;4.56;100.00
19789;BME280;10054;59.332;18.244;2023-04-25T07:24:00;99355.78;;;4.58;100.00
19789;BME280;10054;59.332;18.244;2023-04-25T07:26:31;99347.86;;;4.59;100.00
19789;BME280;10054;59.332;18.244;2023-04-25T07:29:06;99348.52;;;4.63;100.00
19789;BME280;10054;59.332;18.244;2023-04-25T07:31:36;99345.82;;;4.65;100.00
19789;BME280;10054;59.332;18.244;2023-04-25T07:34:05;99356.84;;;4.70;100.00
19789;BME280;10054;59.332;18.244;2023-04-25T07:36:34;99355.64;;;4.75;100.00
19789;BME280;10054;59.332;18.244;2023-04-25T07:39:03;99352.84;;;4.78;100.00
19789;BME280;10054;59.332;18.244;2023-04-25T07:41:32;99351.09;;;4.86;100.00
19789;BME280;10054;59.332;18.244;2023-04-25T07:44:02;99349.80;;;4.93;100.00
19789;BME280;10054;59.332;18.244;2023-04-25T07:46:31;99362.69;;;5.03;100.00
19789;BME280;10054;59.332;18.244;2023-04-25T07:49:00;99363.16;;;5.10;100.00
19789;BME280;10054;59.332;18.244;2023-04-25T07:51:29;99362.23;;;5.11;100.00
19789;BME280;10054;59.332;18.244;2023-04-25T07:54:00;99367.55;;;5.16;100.00
19789;BME280;10054;59.332;18.244;2023-04-25T07:56:29;99376.30;;;5.22;100.00
19789;BME280;10054;59.332;18.244;2023-04-25T07:58:58;99378.64;;;5.27;100.00
19789;BME280;10054;59.332;18.244;2023-04-25T08:01:28;99374.26;;;5.35;100.00
19789;BME280;10054;59.332;18.244;2023-04-25T08:03:58;99380.23;;;5.44;100.00
19789;BME280;10054;59.332;18.244;2023-04-25T08:06:28;99371.08;;;5.51;100.00
19789;BME280;10054;59.332;18.244;2023-04-25T08:09:00;99369.58;;;5.54;100.00
19789;BME280;10054;59.332;18.244;2023-04-25T08:11:30;99382.28;;;5.60;100.00
19789;BME280;10054;59.332;18.244;2023-04-25T08:13:59;99374.43;;;5.67;100.00
19789;BME280;10054;59.332;18.244;2023-04-25T08:16:28;99382.36;;;5.73;100.00
19789;BME280;10054;59.332;18.244;2023-04-25T08:18:58;99385.26;;;5.75;100.00
19789;BME280;10054;59.332;18.244;2023-04-25T08:21:28;99382.83;;;5.79;100.00
19789;BME280;10054;59.332;18.244;2023-04-25T08:23:57;99386.19;;;5.81;100.00
19789;BME280;10054;59.332;18.244;2023-04-25T08:26:28;99389.46;;;5.78;100.00
19789;BME280;10054;59.332;18.244;2023-04-25T08:28:57;99391.61;;;5.78;100.00
19789;BME280;10054;59.332;18.244;2023-04-25T08:31:26;99383.47;;;5.83;100.00
19789;BME280;10054;59.332;18.244;2023-04-25T08:33:57;99388.61;;;5.84;100.00
19789;BME280;10054;59.332;18.244;2023-04-25T08:36:27;99390.66;;;5.86;100.00
19789;BME280;10054;59.332;18.244;2023-04-25T08:38:55;99396.58;;;5.90;100.00
19789;BME280;10054;59.332;18.244;2023-04-25T08:41:25;99394.95;;;5.94;100.00
19789;BME280;10054;59.332;18.244;2023-04-25T08:43:53;99402.46;;;5.93;100.00
19789;BME280;10054;59.332;18.244;2023-04-25T08:46:25;99398.16;;;5.92;100.00
19789;BME280;10054;59.332;18.244;2023-04-25T08:49:00;99405.23;;;5.98;100.00
19789;BME280;10054;59.332;18.244;2023-04-25T08:51:32;99405.41;;;6.02;100.00
19789;BME280;10054;59.332;18.244;2023-04-25T08:54:11;99398.47;;;6.08;100.00
19789;BME280;10054;59.332;18.244;2023-04-25T08:56:37;99404.06;;;6.16;100.00
19789;BME280;10054;59.332;18.244;2023-04-25T08:59:06;99410.49;;;6.24;100.00
19789;BME280;10054;59.332;18.244;2023-04-25T09:01:36;99415.63;;;6.26;100.00
19789;BME280;10054;59.332;18.244;2023-04-25T09:04:05;99418.16;;;6.28;100.00
19789;BME280;10054;59.332;18.244;2023-04-25T09:06:35;99410.75;;;6.34;100.00
19789;BME280;10054;59.332;18.244;2023-04-25T09:09:05;99412.70;;;6.38;100.00
19789;BME280;10054;59.332;18.244;2023-04-25T09:11:35;99415.78;;;6.37;100.00
19789;BME280;10054;59.332;18.244;2023-04-25T09:14:13;99410.82;;;6.40;100.00
19789;BME280;10054;59.332;18.244;2023-04-25T09:17:04;99420.16;;;6.44;100.00
19789;BME280;10054;59.332;18.244;2023-04-25T09:19:37;99416.88;;;6.47;100.00
19789;BME280;10054;59.332;18.244;2023-04-25T09:22:09;99426.48;;;6.54;100.00
19789;BME280;10054;59.332;18.244;2023-04-25T09:24:43;99423.84;;;6.61;100.00
19789;BME280;10054;59.332;18.244;2023-04-25T09:27:18;99428.31;;;6.66;100.00
19789;BME280;10054;59.332;18.244;2023-04-25T09:29:44;99423.58;;;6.71;100.00
19789;BME280;10054;59.332;18.244;2023-04-25T09:32:19;99435.51;;;6.82;100.00
19789;BME280;10054;59.332;18.244;2023-04-25T09:34:54;99435.00;;;6.90;100.00
19789;BME280;10054;59.332;18.244;2023-04-25T09:37:28;99440.41;;;6.94;100.00
19789;BME280;10054;59.332;18.244;2023-04-25T09:40:04;99437.02;;;6.99;100.00
19789;BME280;10054;59.332;18.244;2023-04-25T09:42:40;99443.53;;;7.06;100.00
19789;BME280;10054;59.332;18.244;2023-04-25T09:45:07;99446.31;;;7.10;100.00
19789;BME280;10054;59.332;18.244;2023-04-25T09:47:37;99440.97;;;7.12;100.00
19789;BME280;10054;59.332;18.244;2023-04-25T09:50:14;99445.33;;;7.18;100.00
19789;BME280;10054;59.332;18.244;2023-04-25T09:52:46;99445.23;;;7.20;100.00
19789;BME280;10054;59.332;18.244;2023-04-25T09:55:20;99450.21;;;7.17;100.00
19789;BME280;10054;59.332;18.244;2023-04-25T09:57:51;99449.16;;;7.20;100.00
19789;BME280;10054;59.332;18.244;2023-04-25T10:00:22;99454.04;;;7.19;100.00
19789;BME280;10054;59.332;18.244;2023-04-25T10:02:51;99457.98;;;7.19;100.00
19789;BME280;10054;59.332;18.244;2023-04-25T10:05:30;99454.20;;;7.23;100.00
19789;BME280;10054;59.332;18.244;2023-04-25T10:08:02;99456.15;;;7.27;100.00
19789;BME280;10054;59.332;18.244;2023-04-25T10:10:33;99456.05;;;7.28;100.00
19789;BME280;10054;59.332;18.244;2023-04-25T10:13:05;99457.73;;;7.29;100.00
19789;BME280;10054;59.332;18.244;2023-04-25T10:15:35;99453.01;;;7.34;100.00
19789;BME280;10054;59.332;18.244;2023-04-25T10:18:07;99465.08;;;7.37;100.00
19789;BME280;10054;59.332;18.244;2023-04-25T10:20:37;99465.61;;;7.42;100.00
19789;BME280;10054;59.332;18.244;2023-04-25T10:23:12;99471.04;;;7.51;100.00
19789;BME280;10054;59.332;18.244;2023-04-25T10:25:42;99468.36;;;7.58;100.00
19789;BME280;10054;59.332;18.244;2023-04-25T10:28:12;99474.24;;;7.62;100.00
19789;BME280;10054;59.332;18.244;2023-04-25T10:30:56;99476.08;;;7.67;100.00
19789;BME280;10054;59.332;18.244;2023-04-25T10:33:17;99472.35;;;7.77;100.00
19789;BME280;10054;59.332;18.244;2023-04-25T10:35:46;99474.39;;;7.79;100.00
19789;BME280;10054;59.332;18.244;2023-04-25T10:38:15;99475.61;;;7.80;100.00
19789;BME280;10054;59.332;18.244;2023-04-25T10:41:04;99478.06;;;7.89;100.00
19789;BME280;10054;59.332;18.244;2023-04-25T10:43:58;99481.95;;;7.96;100.00
19789;BME280;10054;59.332;18.244;2023-04-25T10:46:26;99487.14;;;8.03;100.00
19789;BME280;10054;59.332;18.244;2023-04-25T10:48:57;99485.76;;;8.10;100.00
19789;BME280;10054;59.332;18.244;2023-04-25T10:51:28;99482.45;;;8.14;100.00
19789;BME280;10054;59.332;18.244;2023-04-25T10:54:04;99487.23;;;8.20;100.00
19789;BME280;10054;59.332;18.244;2023-04-25T10:59:12;99487.64;;;8.39;100.00
19789;BME280;10054;59.332;18.244;2023-04-25T11:01:43;99491.28;;;8.49;100.00
19789;BME280;10054;59.332;18.244;2023-04-25T11:04:34;99485.95;;;8.56;100.00
19789;BME280;10054;59.332;18.244;2023-04-25T11:09:55;99493.54;;;8.67;100.00
19789;BME280;10054;59.332;18.244;2023-04-25T11:12:25;99487.61;;;8.76;100.00
19789;BME280;10054;59.332;18.244;2023-04-25T11:15:03;99487.36;;;8.73;100.00
19789;BME280;10054;59.332;18.244;2023-04-25T11:17:28;99478.77;;;8.77;100.00
19789;BME280;10054;59.332;18.244;2023-04-25T11:19:57;99484.78;;;8.84;100.00
19789;BME280;10054;59.332;18.244;2023-04-25T11:22:27;99485.17;;;8.91;100.00
19789;BME280;10054;59.332;18.244;2023-04-25T11:24:57;99483.49;;;8.96;100.00
19789;BME280;10054;59.332;18.244;2023-04-25T11:27:26;99490.56;;;9.01;100.00
19789;BME280;10054;59.332;18.244;2023-04-25T11:29:55;99492.66;;;9.14;100.00
19789;BME280;10054;59.332;18.244;2023-04-25T11:32:24;99504.41;;;9.27;100.00
19789;BME280;10054;59.332;18.244;2023-04-25T11:34:53;99500.01;;;9.33;100.00
19789;BME280;10054;59.332;18.244;2023-04-25T11:37:22;99496.80;;;9.40;100.00
19789;BME280;10054;59.332;18.244;2023-04-25T11:39:51;99492.27;;;9.48;100.00
19789;BME280;10054;59.332;18.244;2023-04-25T11:42:20;99492.27;;;9.48;100.00
19789;BME280;10054;59.332;18.244;2023-04-25T11:44:48;99488.57;;;9.50;100.00
19789;BME280;10054;59.332;18.244;2023-04-25T11:47:17;99488.11;;;9.57;100.00
19789;BME280;10054;59.332;18.244;2023-04-25T11:49:46;99490.50;;;9.60;100.00
19789;BME280;10054;59.332;18.244;2023-04-25T11:52:15;99488.59;;;9.62;100.00
19789;BME280;10054;59.332;18.244;2023-04-25T11:54:45;99489.20;;;9.65;100.00
19789;BME280;10054;59.332;18.244;2023-04-25T11:57:14;99487.97;;;9.69;100.00
19789;BME280;10054;59.332;18.244;2023-04-25T11:59:43;99485.70;;;9.70;100.00
19789;BME280;10054;59.332;18.244;2023-04-25T12:02:26;99486.54;;;9.71;100.00
19789;BME280;10054;59.332;18.244;2023-04-25T12:04:58;99492.41;;;9.74;100.00
19789;BME280;10054;59.332;18.244;2023-04-25T12:07:32;99487.75;;;9.78;100.00
19789;BME280;10054;59.332;18.244;2023-04-25T12:10:11;99485.59;;;9.77;100.00
19789;BME280;10054;59.332;18.244;2023-04-25T12:12:46;99484.88;;;9.81;100.00
19789;BME280;10054;59.332;18.244;2023-04-25T12:15:23;99492.42;;;9.85;100.00
19789;BME280;10054;59.332;18.244;2023-04-25T12:17:50;99491.22;;;9.89;100.00
19789;BME280;10054;59.332;18.244;2023-04-25T12:20:24;99490.98;;;9.93;100.00
19789;BME280;10054;59.332;18.244;2023-04-25T12:22:52;99492.30;;;9.93;100.00
19789;BME280;10054;59.332;18.244;2023-04-25T12:25:41;99485.36;;;9.86;100.00
19789;BME280;10054;59.332;18.244;2023-04-25T12:28:16;99494.09;;;9.81;100.00
19789;BME280;10054;59.332;18.244;2023-04-25T12:31:04;99495.52;;;9.74;100.00
19789;BME280;10054;59.332;18.244;2023-04-25T12:33:37;99494.20;;;9.68;100.00
19789;BME280;10054;59.332;18.244;2023-04-25T12:36:07;99496.72;;;9.59;100.00
19789;BME280;10054;59.332;18.244;2023-04-25T12:38:40;99496.22;;;9.48;100.00
19789;BME280;10054;59.332;18.244;2023-04-25T12:41:09;99500.16;;;9.42;100.00
19789;BME280;10054;59.332;18.244;2023-04-25T12:43:38;99505.41;;;9.37;100.00
19789;BME280;10054;59.332;18.244;2023-04-25T12:46:07;99503.59;;;9.32;100.00
19789;BME280;10054;59.332;18.244;2023-04-25T12:48:36;99504.91;;;9.32;100.00
19789;BME280;10054;59.332;18.244;2023-04-25T12:51:06;99507.30;;;9.29;100.00
19789;BME280;10054;59.332;18.244;2023-04-25T12:53:35;99503.94;;;9.27;100.00
19789;BME280;10054;59.332;18.244;2023-04-25T12:56:06;99500.83;;;9.28;100.00
19789;BME280;10054;59.332;18.244;2023-04-25T12:58:34;99497.02;;;9.32;100.00
19789;BME280;10054;59.332;18.244;2023-04-25T13:01:03;99502.53;;;9.34;100.00
19789;BME280;10054;59.332;18.244;2023-04-25T13:03:33;99498.47;;;9.36;100.00
19789;BME280;10054;59.332;18.244;2023-04-25T13:06:02;99506.49;;;9.40;100.00
19789;BME280;10054;59.332;18.244;2023-04-25T13:08:31;99502.79;;;9.42;100.00
19789;BME280;10054;59.332;18.244;2023-04-25T13:11:00;99500.16;;;9.42;100.00
19789;BME280;10054;59.332;18.244;2023-04-25T13:13:29;99496.94;;;9.44;100.00
19789;BME280;10054;59.332;18.244;2023-04-25T13:15:59;99494.80;;;9.49;100.00